sensor_id;sensor_type;location;lat;lon;timestamp;pressure;altitude;pressure_sealevel;temperature;humidity
64675;BME280;51090;51.512;11.332;2022-12-18T00:01:33;100780.34;;;-6.39;79.05
64675;BME280;51090;51.512;11.332;2022-12-18T00:04:01;100776.38;;;-6.51;80.63
64675;BME280;51090;51.512;11.332;2022-12-18T00:06:28;100788.44;;;-6.51;80.08
64675;BME280;51090;51.512;11.332;2022-12-18T00:08:57;100786.03;;;-6.58;80.88
64675;BME280;51090;51.512;11.332;2022-12-18T00:11:26;100782.69;;;-6.61;80.65
64675;BME280;51090;51.512;11.332;2022-12-18T00:13:56;100787.75;;;-6.58;81.09
64675;BME280;51090;51.512;11.332;2022-12-18T00:16:24;100756.34;;;-6.72;80.22
64675;BME280;51090;51.512;11.332;2022-12-18T00:18:53;100782.06;;;-6.71;78.98
64675;BME280;51090;51.512;11.332;2022-12-18T00:21:20;100794.19;;;-6.73;80.52
64675;BME280;51090;51.512;11.332;2022-12-18T00:23:48;100792.47;;;-6.72;81.75
64675;BME280;51090;51.512;11.332;2022-12-18T00:26:22;100790.72;;;-6.72;81.19
64675;BME280;51090;51.512;11.332;2022-12-18T00:28:48;100798.47;;;-6.72;82.20
64675;BME280;51090;51.512;11.332;2022-12-18T00:31:18;100800.13;;;-6.71;81.89
64675;BME280;51090;51.512;11.332;2022-12-18T00:33:45;100801.88;;;-6.71;81.80
64675;BME280;51090;51.512;11.332;2022-12-18T00:36:15;100784.81;;;-6.75;80.79
64675;BME280;51090;51.512;11.332;2022-12-18T00:38:41;100801.94;;;-6.73;81.21
64675;BME280;51090;51.512;11.332;2022-12-18T00:41:10;100800.19;;;-6.72;81.58
64675;BME280;51090;51.512;11.332;2022-12-18T00:43:36;100796.91;;;-6.77;82.19
64675;BME280;51090;51.512;11.332;2022-12-18T00:46:02;100809.72;;;-6.74;81.98
64675;BME280;51090;51.512;11.332;2022-12-18T00:48:28;100803.81;;;-6.78;81.54
64675;BME280;51090;51.512;11.332;2022-12-18T00:50:54;100808.97;;;-6.78;82.05
64675;BME280;51090;51.512;11.332;2022-12-18T00:53:20;100802.16;;;-6.81;81.90
64675;BME280;51090;51.512;11.332;2022-12-18T00:55:46;100820.88;;;-6.74;81.83
64675;BME280;51090;51.512;11.332;2022-12-18T00:58:15;100807.22;;;-6.77;81.39
64675;BME280;51090;51.512;11.332;2022-12-18T01:00:41;100812.38;;;-6.77;80.75
64675;BME280;51090;51.512;11.332;2022-12-18T01:03:09;100814.22;;;-6.83;80.18
64675;BME280;51090;51.512;11.332;2022-12-18T01:05:40;100787.91;;;-6.95;80.92
64675;BME280;51090;51.512;11.332;2022-12-18T01:08:06;100808.28;;;-6.86;80.25
64675;BME280;51090;51.512;11.332;2022-12-18T01:10:32;100822.13;;;-6.89;81.15
64675;BME280;51090;51.512;11.332;2022-12-18T01:12:58;100823.00;;;-6.90;81.36
64675;BME280;51090;51.512;11.332;2022-12-18T01:15:23;100829.81;;;-6.87;81.72
64675;BME280;51090;51.512;11.332;2022-12-18T01:17:52;100824.75;;;-6.90;81.11
64675;BME280;51090;51.512;11.332;2022-12-18T01:20:18;100833.34;;;-6.90;80.73
64675;BME280;51090;51.512;11.332;2022-12-18T01:22:44;100835.91;;;-6.90;80.43
64675;BME280;51090;51.512;11.332;2022-12-18T01:25:10;100826.72;;;-7.00;80.51
64675;BME280;51090;51.512;11.332;2022-12-18T01:27:35;100837.88;;;-6.99;80.13
64675;BME280;51090;51.512;11.332;2022-12-18T01:30:01;100826.91;;;-7.08;80.91
64675;BME280;51090;51.512;11.332;2022-12-18T01:32:30;100827.63;;;-7.01;80.25
64675;BME280;51090;51.512;11.332;2022-12-18T01:34:56;100839.69;;;-7.03;80.28
64675;BME280;51090;51.512;11.332;2022-12-18T01:37:22;100844.03;;;-7.05;80.71
64675;BME280;51090;51.512;11.332;2022-12-18T01:39:47;100839.03;;;-7.11;80.45
64675;BME280;51090;51.512;11.332;2022-12-18T01:42:15;100841.44;;;-7.04;80.60
64675;BME280;51090;51.512;11.332;2022-12-18T01:50:18;100844.75;;;-6.98;78.14
64675;BME280;51090;51.512;11.332;2022-12-18T01:52:52;100842.47;;;-7.11;79.62
64675;BME280;51090;51.512;11.332;2022-12-18T01:55:23;100856.94;;;-7.05;80.25
64675;BME280;51090;51.512;11.332;2022-12-18T01:57:54;100855.97;;;-7.01;81.12
64675;BME280;51090;51.512;11.332;2022-12-18T02:00:22;100855.91;;;-6.99;81.19
64675;BME280;51090;51.512;11.332;2022-12-18T02:02:48;100859.28;;;-6.96;80.86
64675;BME280;51090;51.512;11.332;2022-12-18T02:05:19;100859.03;;;-6.87;80.16
64675;BME280;51090;51.512;11.332;2022-12-18T02:10:33;100847.91;;;-6.89;78.76
64675;BME280;51090;51.512;11.332;2022-12-18T02:13:12;100855.63;;;-6.89;80.45
64675;BME280;51090;51.512;11.332;2022-12-18T02:18:32;100853.78;;;-6.84;81.22
64675;BME280;51090;51.512;11.332;2022-12-18T02:21:19;100847.84;;;-6.86;82.17
64675;BME280;51090;51.512;11.332;2022-12-18T02:24:13;100870.53;;;-6.66;80.44
64675;BME280;51090;51.512;11.332;2022-12-18T02:26:50;100862.03;;;-6.69;81.16
64675;BME280;51090;51.512;11.332;2022-12-18T02:29:41;100866.97;;;-6.62;79.58
64675;BME280;51090;51.512;11.332;2022-12-18T02:32:15;100843.06;;;-6.68;80.20
64675;BME280;51090;51.512;11.332;2022-12-18T02:34:43;100851.75;;;-6.71;81.11
64675;BME280;51090;51.512;11.332;2022-12-18T02:37:14;100860.09;;;-6.61;80.52
64675;BME280;51090;51.512;11.332;2022-12-18T02:39:43;100854.19;;;-6.65;81.27
64675;BME280;51090;51.512;11.332;2022-12-18T02:42:11;100856.63;;;-6.60;81.49
64675;BME280;51090;51.512;11.332;2022-12-18T02:44:49;100863.38;;;-6.54;80.00
64675;BME280;51090;51.512;11.332;2022-12-18T02:47:19;100873.03;;;-6.63;80.09
64675;BME280;51090;51.512;11.332;2022-12-18T02:53:17;100855.91;;;-6.65;78.49
64675;BME280;51090;51.512;11.332;2022-12-18T02:58:59;100838.16;;;-6.77;79.78
64675;BME280;51090;51.512;11.332;2022-12-18T03:02:38;100846.00;;;-6.81;79.76
64675;BME280;51090;51.512;11.332;2022-12-18T03:05:04;100859.75;;;-6.80;80.30
64675;BME280;51090;51.512;11.332;2022-12-18T03:08:12;100862.41;;;-6.83;80.41
64675;BME280;51090;51.512;11.332;2022-12-18T03:13:54;100855.53;;;-6.84;77.66
64675;BME280;51090;51.512;11.332;2022-12-18T03:16:28;100853.03;;;-6.87;81.35
64675;BME280;51090;51.512;11.332;2022-12-18T03:19:14;100856.34;;;-6.82;81.66
64675;BME280;51090;51.512;11.332;2022-12-18T03:21:55;100858.59;;;-6.70;81.60
64675;BME280;51090;51.512;11.332;2022-12-18T03:24:22;100847.47;;;-6.72;82.64
64675;BME280;51090;51.512;11.332;2022-12-18T03:26:54;100860.16;;;-6.64;81.86
64675;BME280;51090;51.512;11.332;2022-12-18T03:29:28;100861.78;;;-6.60;79.03
64675;BME280;51090;51.512;11.332;2022-12-18T03:32:07;100859.41;;;-6.68;79.87
64675;BME280;51090;51.512;11.332;2022-12-18T03:34:38;100867.28;;;-6.72;80.28
64675;BME280;51090;51.512;11.332;2022-12-18T03:37:06;100867.47;;;-6.80;80.14
64675;BME280;51090;51.512;11.332;2022-12-18T03:39:33;100864.09;;;-6.82;80.26
64675;BME280;51090;51.512;11.332;2022-12-18T03:42:26;100867.59;;;-6.85;79.51
64675;BME280;51090;51.512;11.332;2022-12-18T03:48:07;100874.78;;;-6.97;78.85
64675;BME280;51090;51.512;11.332;2022-12-18T03:56:02;100867.69;;;-7.24;79.37
64675;BME280;51090;51.512;11.332;2022-12-18T03:58:31;100857.50;;;-7.28;81.39
64675;BME280;51090;51.512;11.332;2022-12-18T04:01:02;100854.81;;;-7.24;81.62
64675;BME280;51090;51.512;11.332;2022-12-18T04:03:30;100847.03;;;-7.22;81.47
64675;BME280;51090;51.512;11.332;2022-12-18T04:05:59;100842.59;;;-7.17;81.59
64675;BME280;51090;51.512;11.332;2022-12-18T04:08:26;100861.34;;;-7.10;81.56
64675;BME280;51090;51.512;11.332;2022-12-18T04:10:52;100861.44;;;-7.13;79.87
64675;BME280;51090;51.512;11.332;2022-12-18T04:13:29;100838.50;;;-7.24;78.77
64675;BME280;51090;51.512;11.332;2022-12-18T04:15:55;100855.63;;;-7.21;80.62
64675;BME280;51090;51.512;11.332;2022-12-18T04:18:20;100845.44;;;-7.28;79.69
64675;BME280;51090;51.512;11.332;2022-12-18T04:20:46;100845.56;;;-7.32;78.47
64675;BME280;51090;51.512;11.332;2022-12-18T04:23:13;100842.25;;;-7.37;80.09
64675;BME280;51090;51.512;11.332;2022-12-18T04:25:39;100842.28;;;-7.39;80.83
64675;BME280;51090;51.512;11.332;2022-12-18T04:28:04;100833.91;;;-7.47;80.49
64675;BME280;51090;51.512;11.332;2022-12-18T04:30:30;100837.41;;;-7.50;79.61
64675;BME280;51090;51.512;11.332;2022-12-18T04:32:56;100858.84;;;-7.49;79.84
64675;BME280;51090;51.512;11.332;2022-12-18T04:35:22;100852.13;;;-7.55;79.77
64675;BME280;51090;51.512;11.332;2022-12-18T04:37:47;100854.63;;;-7.52;79.76
64675;BME280;51090;51.512;11.332;2022-12-18T04:40:13;100858.97;;;-7.54;79.14
64675;BME280;51090;51.512;11.332;2022-12-18T04:42:40;100847.00;;;-7.56;79.20
64675;BME280;51090;51.512;11.332;2022-12-18T04:45:07;100843.59;;;-7.58;79.12
64675;BME280;51090;51.512;11.332;2022-12-18T04:47:33;100843.75;;;-7.64;78.36
64675;BME280;51090;51.512;11.332;2022-12-18T04:49:59;100850.63;;;-7.65;79.03
64675;BME280;51090;51.512;11.332;2022-12-18T04:52:24;100855.00;;;-7.69;77.88
64675;BME280;51090;51.512;11.332;2022-12-18T04:54:50;100857.72;;;-7.75;77.20
64675;BME280;51090;51.512;11.332;2022-12-18T04:57:16;100855.38;;;-7.85;74.52
64675;BME280;51090;51.512;11.332;2022-12-18T04:59:44;100858.16;;;-7.95;76.15
64675;BME280;51090;51.512;11.332;2022-12-18T05:02:10;100858.25;;;-7.99;77.40
64675;BME280;51090;51.512;11.332;2022-12-18T05:04:35;100866.84;;;-8.00;76.37
64675;BME280;51090;51.512;11.332;2022-12-18T05:07:01;100856.72;;;-8.08;77.37
64675;BME280;51090;51.512;11.332;2022-12-18T05:09:27;100858.44;;;-8.08;77.35
64675;BME280;51090;51.512;11.332;2022-12-18T05:11:52;100865.34;;;-8.11;76.73
64675;BME280;51090;51.512;11.332;2022-12-18T05:14:19;100856.13;;;-8.22;78.27
64675;BME280;51090;51.512;11.332;2022-12-18T05:16:45;100897.00;;;-8.05;79.06
64675;BME280;51090;51.512;11.332;2022-12-18T05:19:11;100873.91;;;-8.10;78.53
64675;BME280;51090;51.512;11.332;2022-12-18T05:21:36;100890.09;;;-8.03;78.90
64675;BME280;51090;51.512;11.332;2022-12-18T05:24:02;100885.59;;;-7.94;79.24
64675;BME280;51090;51.512;11.332;2022-12-18T05:26:28;100888.03;;;-7.88;78.86
64675;BME280;51090;51.512;11.332;2022-12-18T05:28:54;100890.53;;;-7.84;78.83
64675;BME280;51090;51.512;11.332;2022-12-18T05:31:20;100888.72;;;-7.81;78.29
64675;BME280;51090;51.512;11.332;2022-12-18T05:33:46;100894.03;;;-7.87;77.44
64675;BME280;51090;51.512;11.332;2022-12-18T05:36:14;100902.66;;;-7.90;76.74
64675;BME280;51090;51.512;11.332;2022-12-18T05:38:41;100895.00;;;-7.93;76.21
64675;BME280;51090;51.512;11.332;2022-12-18T05:41:07;100890.88;;;-8.00;76.43
64675;BME280;51090;51.512;11.332;2022-12-18T05:43:36;100867.16;;;-8.14;76.16
64675;BME280;51090;51.512;11.332;2022-12-18T05:46:07;100884.13;;;-8.07;76.80
64675;BME280;51090;51.512;11.332;2022-12-18T05:48:33;100891.16;;;-8.14;76.78
64675;BME280;51090;51.512;11.332;2022-12-18T05:51:15;100887.69;;;-8.13;75.17
64675;BME280;51090;51.512;11.332;2022-12-18T05:53:42;100896.31;;;-8.14;76.86
64675;BME280;51090;51.512;11.332;2022-12-18T05:56:12;100890.34;;;-8.17;76.94
64675;BME280;51090;51.512;11.332;2022-12-18T05:58:40;100900.63;;;-8.14;76.66
64675;BME280;51090;51.512;11.332;2022-12-18T06:01:19;100894.59;;;-8.15;75.08
64675;BME280;51090;51.512;11.332;2022-12-18T06:03:46;100896.41;;;-8.20;76.86
64675;BME280;51090;51.512;11.332;2022-12-18T06:06:24;100893.88;;;-8.21;75.49
64675;BME280;51090;51.512;11.332;2022-12-18T06:08:53;100902.44;;;-8.21;76.92
64675;BME280;51090;51.512;11.332;2022-12-18T06:11:25;100902.50;;;-8.24;76.28
64675;BME280;51090;51.512;11.332;2022-12-18T06:13:55;100899.03;;;-8.23;75.18
64675;BME280;51090;51.512;11.332;2022-12-18T06:16:21;100886.47;;;-8.38;73.51
64675;BME280;51090;51.512;11.332;2022-12-18T06:18:47;100903.56;;;-8.34;74.69
64675;BME280;51090;51.512;11.332;2022-12-18T06:21:13;100890.06;;;-8.45;75.70
64675;BME280;51090;51.512;11.332;2022-12-18T06:23:39;100908.06;;;-8.44;75.43
64675;BME280;51090;51.512;11.332;2022-12-18T06:26:10;100903.66;;;-8.39;76.06
64675;BME280;51090;51.512;11.332;2022-12-18T06:28:37;100902.16;;;-8.49;75.43
64675;BME280;51090;51.512;11.332;2022-12-18T06:31:04;100882.47;;;-8.51;76.19
64675;BME280;51090;51.512;11.332;2022-12-18T06:33:30;100897.91;;;-8.51;76.38
64675;BME280;51090;51.512;11.332;2022-12-18T06:36:22;100875.66;;;-8.54;74.88
64675;BME280;51090;51.512;11.332;2022-12-18T06:38:48;100902.16;;;-8.47;76.56
64675;BME280;51090;51.512;11.332;2022-12-18T06:41:17;100902.16;;;-8.47;75.87
64675;BME280;51090;51.512;11.332;2022-12-18T06:43:44;100920.16;;;-8.49;76.15
64675;BME280;51090;51.512;11.332;2022-12-18T06:46:10;100920.28;;;-8.55;75.34
64675;BME280;51090;51.512;11.332;2022-12-18T06:48:36;100919.53;;;-8.60;75.34
64675;BME280;51090;51.512;11.332;2022-12-18T06:51:02;100917.84;;;-8.63;75.12
64675;BME280;51090;51.512;11.332;2022-12-18T06:53:28;100930.66;;;-8.61;74.18
64675;BME280;51090;51.512;11.332;2022-12-18T06:56:02;100915.28;;;-8.64;75.60
64675;BME280;51090;51.512;11.332;2022-12-18T06:58:28;100917.84;;;-8.63;76.38
64675;BME280;51090;51.512;11.332;2022-12-18T07:01:00;100924.59;;;-8.57;75.05
64675;BME280;51090;51.512;11.332;2022-12-18T07:03:26;100926.41;;;-8.62;73.74
64675;BME280;51090;51.512;11.332;2022-12-18T07:05:52;100926.47;;;-8.65;74.89
64675;BME280;51090;51.512;11.332;2022-12-18T07:08:18;100936.75;;;-8.65;72.23
64675;BME280;51090;51.512;11.332;2022-12-18T07:10:44;100936.00;;;-8.70;75.15
64675;BME280;51090;51.512;11.332;2022-12-18T07:13:10;100925.72;;;-8.72;75.13
64675;BME280;51090;51.512;11.332;2022-12-18T07:15:36;100932.59;;;-8.72;75.24
64675;BME280;51090;51.512;11.332;2022-12-18T07:18:02;100928.31;;;-8.73;75.53
64675;BME280;51090;51.512;11.332;2022-12-18T07:20:28;100922.25;;;-8.71;75.75
64675;BME280;51090;51.512;11.332;2022-12-18T07:22:53;100930.84;;;-8.70;75.22
64675;BME280;51090;51.512;11.332;2022-12-18T07:25:19;100934.19;;;-8.65;74.82
64675;BME280;51090;51.512;11.332;2022-12-18T07:27:45;100921.41;;;-8.70;75.88
64675;BME280;51090;51.512;11.332;2022-12-18T07:30:11;100918.78;;;-8.67;75.63
64675;BME280;51090;51.512;11.332;2022-12-18T07:32:37;100936.63;;;-8.59;75.25
64675;BME280;51090;51.512;11.332;2022-12-18T07:35:03;100934.06;;;-8.59;75.29
64675;BME280;51090;51.512;11.332;2022-12-18T07:37:29;100946.94;;;-8.59;76.11
64675;BME280;51090;51.512;11.332;2022-12-18T07:39:54;100945.19;;;-8.59;75.25
64675;BME280;51090;51.512;11.332;2022-12-18T07:42:20;100944.28;;;-8.56;74.85
64675;BME280;51090;51.512;11.332;2022-12-18T07:44:59;100951.88;;;-8.48;74.70
64675;BME280;51090;51.512;11.332;2022-12-18T07:47:25;100945.13;;;-8.56;75.30
64675;BME280;51090;51.512;11.332;2022-12-18T07:49:51;100956.25;;;-8.53;75.50
64675;BME280;51090;51.512;11.332;2022-12-18T07:52:17;100964.84;;;-8.55;74.23
64675;BME280;51090;51.512;11.332;2022-12-18T07:54:43;100970.97;;;-8.62;74.07
64675;BME280;51090;51.512;11.332;2022-12-18T07:57:09;100992.34;;;-8.58;73.81
64675;BME280;51090;51.512;11.332;2022-12-18T07:59:35;100976.19;;;-8.66;76.29
64675;BME280;51090;51.512;11.332;2022-12-18T08:02:01;100985.38;;;-8.51;77.32
64675;BME280;51090;51.512;11.332;2022-12-18T08:04:27;100984.34;;;-8.41;77.02
64675;BME280;51090;51.512;11.332;2022-12-18T08:06:52;100982.72;;;-8.47;74.61
64675;BME280;51090;51.512;11.332;2022-12-18T08:09:18;100990.50;;;-8.50;76.09
64675;BME280;51090;51.512;11.332;2022-12-18T08:11:44;100991.97;;;-8.38;77.40
64675;BME280;51090;51.512;11.332;2022-12-18T08:14:10;100976.66;;;-8.43;77.92
64675;BME280;51090;51.512;11.332;2022-12-18T08:16:36;101005.34;;;-8.18;76.75
64675;BME280;51090;51.512;11.332;2022-12-18T08:19:02;100993.38;;;-8.20;75.67
64675;BME280;51090;51.512;11.332;2022-12-18T08:21:30;101001.06;;;-8.19;76.15
64675;BME280;51090;51.512;11.332;2022-12-18T08:23:59;100982.16;;;-8.16;76.87
64675;BME280;51090;51.512;11.332;2022-12-18T08:26:28;100992.19;;;-8.02;77.44
64675;BME280;51090;51.512;11.332;2022-12-18T08:28:56;100995.44;;;-7.94;77.58
64675;BME280;51090;51.512;11.332;2022-12-18T08:31:22;101003.78;;;-7.81;77.97
64675;BME280;51090;51.512;11.332;2022-12-18T08:33:50;101003.69;;;-7.75;77.21
64675;BME280;51090;51.512;11.332;2022-12-18T08:36:16;101001.94;;;-7.75;75.73
64675;BME280;51090;51.512;11.332;2022-12-18T08:38:43;100999.22;;;-7.67;76.98
64675;BME280;51090;51.512;11.332;2022-12-18T08:41:14;100993.94;;;-7.61;75.69
64675;BME280;51090;51.512;11.332;2022-12-18T08:43:40;100987.84;;;-7.57;77.69
64675;BME280;51090;51.512;11.332;2022-12-18T08:46:26;100968.91;;;-7.54;77.40
64675;BME280;51090;51.512;11.332;2022-12-18T08:48:53;100971.22;;;-7.42;77.77
64675;BME280;51090;51.512;11.332;2022-12-18T08:51:20;100964.34;;;-7.41;76.94
64675;BME280;51090;51.512;11.332;2022-12-18T08:53:47;100953.09;;;-7.39;79.14
64675;BME280;51090;51.512;11.332;2022-12-18T08:56:14;100954.53;;;-7.27;79.51
64675;BME280;51090;51.512;11.332;2022-12-18T08:58:41;100957.78;;;-7.17;79.33
64675;BME280;51090;51.512;11.332;2022-12-18T09:01:10;100965.25;;;-7.07;79.41
64675;BME280;51090;51.512;11.332;2022-12-18T09:03:36;100954.94;;;-7.07;79.76
64675;BME280;51090;51.512;11.332;2022-12-18T09:06:02;100940.19;;;-7.02;79.63
64675;BME280;51090;51.512;11.332;2022-12-18T09:08:28;100929.09;;;-7.04;79.41
64675;BME280;51090;51.512;11.332;2022-12-18T09:10:55;100954.44;;;-6.85;79.17
64675;BME280;51090;51.512;11.332;2022-12-18T09:13:21;100961.94;;;-6.76;79.61
64675;BME280;51090;51.512;11.332;2022-12-18T09:15:50;100937.94;;;-6.78;79.56
64675;BME280;51090;51.512;11.332;2022-12-18T09:18:18;100955.53;;;-6.60;80.02
64675;BME280;51090;51.512;11.332;2022-12-18T09:20:44;100951.88;;;-6.52;79.99
64675;BME280;51090;51.512;11.332;2022-12-18T09:23:11;100955.16;;;-6.44;79.86
64675;BME280;51090;51.512;11.332;2022-12-18T09:25:38;100954.06;;;-6.37;79.63
64675;BME280;51090;51.512;11.332;2022-12-18T09:28:10;100948.59;;;-6.25;78.54
64675;BME280;51090;51.512;11.332;2022-12-18T09:30:44;100930.50;;;-6.23;78.58
64675;BME280;51090;51.512;11.332;2022-12-18T09:33:10;100926.97;;;-6.21;79.28
64675;BME280;51090;51.512;11.332;2022-12-18T09:35:37;100917.50;;;-6.22;79.65
64675;BME280;51090;51.512;11.332;2022-12-18T09:38:04;100923.28;;;-6.12;81.11
64675;BME280;51090;51.512;11.332;2022-12-18T09:40:36;100914.50;;;-6.06;80.87
64675;BME280;51090;51.512;11.332;2022-12-18T09:43:06;100925.44;;;-5.97;82.04
64675;BME280;51090;51.512;11.332;2022-12-18T09:45:43;100923.31;;;-5.84;83.64
64675;BME280;51090;51.512;11.332;2022-12-18T09:48:25;100916.38;;;-5.82;85.26
64675;BME280;51090;51.512;11.332;2022-12-18T09:50:59;100913.66;;;-5.77;87.05
64675;BME280;51090;51.512;11.332;2022-12-18T09:53:31;100909.34;;;-5.77;87.66
64675;BME280;51090;51.512;11.332;2022-12-18T09:56:00;100905.78;;;-5.73;89.87
64675;BME280;51090;51.512;11.332;2022-12-18T09:58:36;100913.06;;;-5.57;88.81
64675;BME280;51090;51.512;11.332;2022-12-18T10:01:13;100901.88;;;-5.58;87.19
64675;BME280;51090;51.512;11.332;2022-12-18T10:03:40;100914.75;;;-5.56;87.57
64675;BME280;51090;51.512;11.332;2022-12-18T10:06:23;100902.31;;;-5.43;88.34
64675;BME280;51090;51.512;11.332;2022-12-18T10:09:03;100909.69;;;-5.31;89.35
64675;BME280;51090;51.512;11.332;2022-12-18T10:11:59;100899.81;;;-5.18;88.19
64675;BME280;51090;51.512;11.332;2022-12-18T10:14:50;100884.97;;;-5.13;88.30
64675;BME280;51090;51.512;11.332;2022-12-18T10:17:42;100896.50;;;-4.97;88.45
64675;BME280;51090;51.512;11.332;2022-12-18T10:20:32;100885.75;;;-4.85;88.34
64675;BME280;51090;51.512;11.332;2022-12-18T10:23:27;100885.34;;;-4.72;87.07
64675;BME280;51090;51.512;11.332;2022-12-18T10:26:20;100884.91;;;-4.60;87.18
64675;BME280;51090;51.512;11.332;2022-12-18T10:28:46;100891.66;;;-4.54;88.22
64675;BME280;51090;51.512;11.332;2022-12-18T10:31:24;100892.94;;;-4.43;87.43
64675;BME280;51090;51.512;11.332;2022-12-18T10:33:50;100897.81;;;-4.33;87.86
64675;BME280;51090;51.512;11.332;2022-12-18T10:36:16;100899.34;;;-4.28;88.22
64675;BME280;51090;51.512;11.332;2022-12-18T10:38:42;100899.06;;;-4.20;88.45
64675;BME280;51090;51.512;11.332;2022-12-18T10:43:48;100903.91;;;-3.87;88.30
64675;BME280;51090;51.512;11.332;2022-12-18T10:46:19;100897.50;;;-3.77;87.27
64675;BME280;51090;51.512;11.332;2022-12-18T10:48:54;100911.78;;;-3.67;87.21
64675;BME280;51090;51.512;11.332;2022-12-18T10:56:31;100909.81;;;-3.38;88.42
64675;BME280;51090;51.512;11.332;2022-12-18T10:59:11;100924.66;;;-3.20;86.76
64675;BME280;51090;51.512;11.332;2022-12-18T11:01:57;100934.78;;;-3.14;84.91
64675;BME280;51090;51.512;11.332;2022-12-18T11:04:31;100909.75;;;-3.15;86.78
64675;BME280;51090;51.512;11.332;2022-12-18T11:07:03;100924.84;;;-3.02;87.35
64675;BME280;51090;51.512;11.332;2022-12-18T11:09:38;100916.00;;;-2.98;87.11
64675;BME280;51090;51.512;11.332;2022-12-18T11:14:47;100911.78;;;-2.79;87.12
64675;BME280;51090;51.512;11.332;2022-12-18T11:17:31;100912.28;;;-2.71;85.92
64675;BME280;51090;51.512;11.332;2022-12-18T11:20:34;100904.25;;;-2.65;86.22
64675;BME280;51090;51.512;11.332;2022-12-18T11:23:11;100899.91;;;-2.64;85.93
64675;BME280;51090;51.512;11.332;2022-12-18T11:25:39;100910.06;;;-2.59;86.82
64675;BME280;51090;51.512;11.332;2022-12-18T11:31:28;100895.88;;;-2.51;86.81
64675;BME280;51090;51.512;11.332;2022-12-18T11:34:26;100909.97;;;-2.36;88.47
64675;BME280;51090;51.512;11.332;2022-12-18T11:36:54;100889.22;;;-2.37;88.26
64675;BME280;51090;51.512;11.332;2022-12-18T11:50:00;100876.66;;;-2.07;86.61
64675;BME280;51090;51.512;11.332;2022-12-18T11:52:37;100862.53;;;-2.02;86.99
64675;BME280;51090;51.512;11.332;2022-12-18T11:55:49;100871.53;;;-1.90;84.87
64675;BME280;51090;51.512;11.332;2022-12-18T12:07:20;100846.34;;;-1.70;87.10
64675;BME280;51090;51.512;11.332;2022-12-18T12:13:13;100856.13;;;-1.57;86.83
64675;BME280;51090;51.512;11.332;2022-12-18T12:16:04;100853.91;;;-1.47;86.18
64675;BME280;51090;51.512;11.332;2022-12-18T12:19:03;100851.44;;;-1.50;85.25
64675;BME280;51090;51.512;11.332;2022-12-18T12:21:46;100845.00;;;-1.60;86.02
64675;BME280;51090;51.512;11.332;2022-12-18T12:24:55;100860.69;;;-1.62;85.89
64675;BME280;51090;51.512;11.332;2022-12-18T12:27:44;100851.00;;;-1.77;86.89
64675;BME280;51090;51.512;11.332;2022-12-18T12:38:57;100829.63;;;-1.84;88.89
64675;BME280;51090;51.512;11.332;2022-12-18T12:41:27;100814.69;;;-1.98;89.00
64675;BME280;51090;51.512;11.332;2022-12-18T12:44:26;100836.66;;;-1.86;89.16
64675;BME280;51090;51.512;11.332;2022-12-18T12:46:59;100815.38;;;-1.94;89.05
64675;BME280;51090;51.512;11.332;2022-12-18T12:49:30;100804.19;;;-1.96;89.45
64675;BME280;51090;51.512;11.332;2022-12-18T12:52:10;100807.56;;;-1.94;89.73
64675;BME280;51090;51.512;11.332;2022-12-18T12:54:38;100801.75;;;-1.99;89.80
64675;BME280;51090;51.512;11.332;2022-12-18T12:57:23;100809.25;;;-1.93;90.04
64675;BME280;51090;51.512;11.332;2022-12-18T13:00:24;100805.13;;;-1.97;89.98
64675;BME280;51090;51.512;11.332;2022-12-18T13:03:19;100801.25;;;-2.07;90.22
64675;BME280;51090;51.512;11.332;2022-12-18T13:06:00;100802.84;;;-2.24;89.99
64675;BME280;51090;51.512;11.332;2022-12-18T13:08:34;100795.84;;;-2.41;90.19
64675;BME280;51090;51.512;11.332;2022-12-18T13:11:37;100815.16;;;-2.46;91.06
64675;BME280;51090;51.512;11.332;2022-12-18T13:14:34;100821.72;;;-2.58;91.33
64675;BME280;51090;51.512;11.332;2022-12-18T13:24:59;100776.63;;;-2.96;92.84
64675;BME280;51090;51.512;11.332;2022-12-18T13:30:55;100770.13;;;-2.86;95.57
64675;BME280;51090;51.512;11.332;2022-12-18T13:33:44;100763.41;;;-2.90;94.71
64675;BME280;51090;51.512;11.332;2022-12-18T13:41:40;100763.53;;;-2.93;94.51
64675;BME280;51090;51.512;11.332;2022-12-18T13:44:38;100772.59;;;-2.83;94.69
64675;BME280;51090;51.512;11.332;2022-12-18T13:47:32;100771.91;;;-2.87;94.45
64675;BME280;51090;51.512;11.332;2022-12-18T13:49:59;100771.44;;;-2.96;95.00
64675;BME280;51090;51.512;11.332;2022-12-18T13:52:28;100767.03;;;-2.94;95.61
64675;BME280;51090;51.512;11.332;2022-12-18T13:54:59;100775.53;;;-2.91;95.84
64675;BME280;51090;51.512;11.332;2022-12-18T13:57:45;100779.41;;;-2.80;94.91
64675;BME280;51090;51.512;11.332;2022-12-18T14:00:26;100782.88;;;-2.80;95.29
64675;BME280;51090;51.512;11.332;2022-12-18T14:02:55;100775.34;;;-2.86;95.81
64675;BME280;51090;51.512;11.332;2022-12-18T14:05:30;100782.00;;;-2.80;94.92
64675;BME280;51090;51.512;11.332;2022-12-18T14:08:14;100794.66;;;-2.73;94.00
64675;BME280;51090;51.512;11.332;2022-12-18T14:10:42;100790.66;;;-2.80;93.82
64675;BME280;51090;51.512;11.332;2022-12-18T14:13:13;100777.16;;;-2.88;94.53
64675;BME280;51090;51.512;11.332;2022-12-18T14:15:43;100770.22;;;-2.88;96.04
64675;BME280;51090;51.512;11.332;2022-12-18T14:20:54;100782.78;;;-2.78;95.81
64675;BME280;51090;51.512;11.332;2022-12-18T14:23:38;100784.00;;;-2.67;95.82
64675;BME280;51090;51.512;11.332;2022-12-18T14:26:30;100775.44;;;-2.69;95.83
64675;BME280;51090;51.512;11.332;2022-12-18T14:29:28;100789.06;;;-2.64;94.88
64675;BME280;51090;51.512;11.332;2022-12-18T14:32:18;100784.25;;;-2.73;94.29
64675;BME280;51090;51.512;11.332;2022-12-18T14:34:49;100780.06;;;-2.75;94.97
64675;BME280;51090;51.512;11.332;2022-12-18T14:37:20;100785.19;;;-2.74;94.71
64675;BME280;51090;51.512;11.332;2022-12-18T14:39:59;100777.44;;;-2.75;94.19